Time;durP1;ratioP1;P1;durP2;ratioP2;P2;SDS_P1;SDS_P2;PMS_P1;PMS_P2;Temp;Humidity;BMP_temperature;BMP_pressure;BME280_temperature;BME280_humidity;BME280_pressure;Samples;Min_cycle;Max_cycle;Signal;HPM_P1;HPM_P2
2021/10/20 00:02:36;;;;;;;0.50;0.50;;;21.60;53.00;;;;;;6279988;28;20021;-67
2021/10/20 00:05:37;;;;;;;0.43;0.40;;;21.60;53.00;;;;;;6295978;28;20028;-67
2021/10/20 00:08:38;;;;;;;0.40;0.40;;;21.60;53.00;;;;;;6270985;28;20029;-67
2021/10/20 00:11:38;;;;;;;0.35;0.30;;;21.60;53.00;;;;;;6275456;28;20052;-67
2021/10/20 00:14:39;;;;;;;0.55;0.45;;;21.60;52.90;;;;;;6295773;28;20028;-68
2021/10/20 00:17:40;;;;;;;0.30;0.30;;;21.60;53.00;;;;;;6295200;28;20483;-67
2021/10/20 00:20:41;;;;;;;0.25;0.25;;;21.60;53.00;;;;;;6295289;28;20032;-67
2021/10/20 00:23:41;;;;;;;0.40;0.40;;;21.60;53.00;;;;;;6291632;28;20090;-68
2021/10/20 00:26:42;;;;;;;0.45;0.40;;;21.60;53.00;;;;;;6295044;28;20429;-67
2021/10/20 00:29:42;;;;;;;0.30;0.30;;;21.60;53.00;;;;;;6295083;28;20111;-67
2021/10/20 00:32:44;;;;;;;0.30;0.30;;;21.60;53.00;;;;;;6275379;28;20032;-67
2021/10/20 00:35:44;;;;;;;0.52;0.40;;;21.60;53.00;;;;;;6271807;28;20060;-67
2021/10/20 00:38:45;;;;;;;0.32;0.30;;;21.60;53.00;;;;;;6255167;28;20028;-67
2021/10/20 00:41:46;;;;;;;0.40;0.30;;;21.60;53.00;;;;;;6256933;28;20095;-68
2021/10/20 00:44:52;;;;;;;0.47;0.40;;;21.60;53.00;;;;;;6273604;28;20612;-67
2021/10/20 00:47:53;;;;;;;0.40;0.38;;;21.60;53.00;;;;;;6284641;28;20473;-68
2021/10/20 00:50:54;;;;;;;0.30;0.30;;;21.60;53.00;;;;;;6290745;28;20455;-67
2021/10/20 00:53:57;;;;;;;0.50;0.43;;;21.60;53.00;;;;;;6270299;28;20025;-67
2021/10/20 00:56:58;;;;;;;0.40;0.40;;;21.60;53.00;;;;;;6269526;28;20013;-67
2021/10/20 01:00:01;;;;;;;0.75;0.30;;;21.60;53.10;;;;;;6269952;28;20052;-67
2021/10/20 01:03:02;;;;;;;0.43;0.35;;;21.60;53.00;;;;;;6269143;28;20025;-67
2021/10/20 01:06:04;;;;;;;0.82;0.40;;;21.60;53.00;;;;;;6269502;28;20032;-67
2021/10/20 01:09:05;;;;;;;0.40;0.40;;;21.60;53.00;;;;;;6269388;28;20053;-67
2021/10/20 01:12:06;;;;;;;0.65;0.40;;;21.60;53.10;;;;;;6269308;28;20548;-67
2021/10/20 01:15:27;;;;;;;0.32;0.32;;;21.60;53.00;;;;;;6269352;28;20029;-67
2021/10/20 01:18:28;;;;;;;0.30;0.30;;;21.60;53.00;;;;;;6271462;28;20036;-67
2021/10/20 01:21:29;;;;;;;0.55;0.40;;;21.60;53.00;;;;;;6273079;28;20497;-67
2021/10/20 01:24:29;;;;;;;0.30;0.30;;;21.60;53.00;;;;;;6293788;28;20052;-67
2021/10/20 01:27:30;;;;;;;0.20;0.20;;;21.60;53.10;;;;;;6269680;28;20029;-67
2021/10/20 01:30:31;;;;;;;0.30;0.30;;;21.60;53.00;;;;;;6269639;28;20540;-67
2021/10/20 01:33:31;;;;;;;0.45;0.45;;;21.60;53.10;;;;;;6294112;28;20032;-67
2021/10/20 01:36:32;;;;;;;0.30;0.30;;;21.60;53.10;;;;;;6288241;28;20071;-67
2021/10/20 01:39:33;;;;;;;0.38;0.38;;;21.60;53.70;;;;;;6293764;28;20230;-67
2021/10/20 01:42:34;;;;;;;0.55;0.43;;;21.60;53.10;;;;;;6286758;28;20280;-67
2021/10/20 01:45:35;;;;;;;0.40;0.40;;;21.60;53.10;;;;;;6290325;28;20028;-67
2021/10/20 01:48:36;;;;;;;0.30;0.30;;;21.60;53.10;;;;;;6285598;28;20028;-67
2021/10/20 01:51:37;;;;;;;0.22;0.22;;;21.60;53.10;;;;;;6286536;28;20107;-67
2021/10/20 01:54:37;;;;;;;0.40;0.30;;;21.60;53.10;;;;;;6268243;28;20037;-68
2021/10/20 01:57:38;;;;;;;0.20;0.20;;;21.60;53.10;;;;;;6281417;28;20044;-69
2021/10/20 02:00:39;;;;;;;0.40;0.40;;;21.60;53.10;;;;;;6291785;28;20391;-68
2021/10/20 02:03:40;;;;;;;0.30;0.30;;;21.60;53.10;;;;;;6269999;28;20033;-68
2021/10/20 02:06:43;;;;;;;0.30;0.30;;;21.60;53.10;;;;;;6280034;28;20072;-68
2021/10/20 02:09:45;;;;;;;0.50;0.50;;;21.60;53.10;;;;;;6292049;28;20045;-68
2021/10/20 02:12:46;;;;;;;0.30;0.30;;;21.60;53.10;;;;;;6288299;28;20032;-68
2021/10/20 02:15:46;;;;;;;0.40;0.40;;;21.60;53.10;;;;;;6291963;28;20025;-68
2021/10/20 02:18:47;;;;;;;0.30;0.30;;;21.60;53.10;;;;;;6271010;28;20071;-69
2021/10/20 02:21:48;;;;;;;0.22;0.22;;;21.60;53.10;;;;;;6274805;28;20028;-68
2021/10/20 02:24:49;;;;;;;0.32;0.32;;;21.60;53.10;;;;;;6291605;28;20028;-68
2021/10/20 02:27:50;;;;;;;0.50;0.40;;;21.60;53.10;;;;;;6291645;28;20029;-68
2021/10/20 02:30:51;;;;;;;0.40;0.40;;;21.60;53.10;;;;;;6290594;28;20524;-68
2021/10/20 02:33:52;;;;;;;0.45;0.40;;;21.60;53.10;;;;;;6291896;28;20104;-68
2021/10/20 02:36:53;;;;;;;0.47;0.47;;;21.60;53.10;;;;;;6291209;28;20611;-68
2021/10/20 02:39:53;;;;;;;0.55;0.40;;;21.60;53.10;;;;;;6291807;28;20017;-68
2021/10/20 02:42:54;;;;;;;0.70;0.50;;;21.60;53.10;;;;;;6289480;28;20115;-68
2021/10/20 02:45:55;;;;;;;0.30;0.30;;;21.60;53.10;;;;;;6288391;28;20183;-68
2021/10/20 02:48:56;;;;;;;0.30;0.30;;;21.60;53.10;;;;;;6266750;28;20484;-68
2021/10/20 02:51:57;;;;;;;0.50;0.50;;;21.60;53.10;;;;;;6277820;28;20203;-69
2021/10/20 02:54:57;;;;;;;0.50;0.50;;;21.60;53.10;;;;;;6242507;28;20487;-68
2021/10/20 02:57:58;;;;;;;0.40;0.30;;;21.60;53.10;;;;;;6282124;28;20401;-68
2021/10/20 03:00:58;;;;;;;0.30;0.30;;;21.60;53.10;;;;;;6291368;28;20028;-68
2021/10/20 03:03:59;;;;;;;0.45;0.45;;;21.60;53.10;;;;;;6265442;28;20446;-68
2021/10/20 03:06:59;;;;;;;0.40;0.40;;;21.60;53.10;;;;;;6289815;28;20036;-68
2021/10/20 03:10:00;;;;;;;0.47;0.40;;;21.60;53.10;;;;;;6296276;28;20279;-68
2021/10/20 03:13:01;;;;;;;0.52;0.35;;;21.60;53.10;;;;;;6291179;28;20100;-68
2021/10/20 03:16:01;;;;;;;0.30;0.30;;;21.60;53.10;;;;;;6295362;28;20033;-68
2021/10/20 03:19:03;;;;;;;0.40;0.40;;;21.60;53.20;;;;;;6293714;28;20100;-67
2021/10/20 03:22:04;;;;;;;0.40;0.40;;;21.60;53.10;;;;;;6296202;28;20482;-68
2021/10/20 03:25:06;;;;;;;0.40;0.40;;;21.60;53.10;;;;;;6296154;28;20058;-67
2021/10/20 03:28:06;;;;;;;0.40;0.40;;;21.60;53.10;;;;;;6295901;28;20033;-68
2021/10/20 03:31:07;;;;;;;0.32;0.32;;;21.60;53.10;;;;;;6289155;28;20040;-67
2021/10/20 03:34:08;;;;;;;0.45;0.43;;;21.60;53.20;;;;;;6271371;28;20028;-67
2021/10/20 03:37:08;;;;;;;0.40;0.40;;;21.60;53.10;;;;;;6271004;28;20214;-67
2021/10/20 03:40:09;;;;;;;0.65;0.50;;;21.60;53.10;;;;;;6276706;28;20025;-67
2021/10/20 03:43:10;;;;;;;0.30;0.30;;;21.60;53.10;;;;;;6294576;28;20021;-67
2021/10/20 03:46:10;;;;;;;0.30;0.30;;;21.60;53.20;;;;;;6291571;28;20055;-67
2021/10/20 03:49:11;;;;;;;0.30;0.30;;;21.60;53.10;;;;;;6271387;28;20033;-67
2021/10/20 03:52:11;;;;;;;0.57;0.50;;;21.60;53.10;;;;;;6273362;28;20035;-67
2021/10/20 03:55:12;;;;;;;0.43;0.43;;;21.60;53.20;;;;;;6270821;28;20025;-67
2021/10/20 03:58:13;;;;;;;0.63;0.40;;;21.60;53.10;;;;;;6292523;28;20025;-67
2021/10/20 04:01:13;;;;;;;0.70;0.60;;;21.60;53.10;;;;;;6287635;28;20033;-67
2021/10/20 04:04:14;;;;;;;0.70;0.50;;;21.60;53.10;;;;;;6245884;28;20426;-67
2021/10/20 04:07:15;;;;;;;0.60;0.50;;;21.60;53.20;;;;;;6258111;28;20021;-67
2021/10/20 04:10:26;;;;;;;0.35;0.35;;;21.60;53.10;;;;;;6269978;28;20075;-67
2021/10/20 04:13:26;;;;;;;0.40;0.40;;;21.60;53.10;;;;;;6274753;28;20086;-67
2021/10/20 04:16:27;;;;;;;0.73;0.47;;;21.60;53.10;;;;;;6271615;28;20028;-67
2021/10/20 04:19:27;;;;;;;0.50;0.50;;;21.60;53.20;;;;;;6269671;28;20329;-67
2021/10/20 04:22:28;;;;;;;1.00;0.60;;;21.60;53.20;;;;;;6279399;28;20094;-67
2021/10/20 04:25:28;;;;;;;0.40;0.40;;;21.60;53.20;;;;;;6292259;28;20152;-67
2021/10/20 04:28:29;;;;;;;0.57;0.50;;;21.60;53.10;;;;;;6289286;28;20119;-67
2021/10/20 04:31:29;;;;;;;0.50;0.50;;;21.60;53.20;;;;;;6293506;28;20078;-67
2021/10/20 04:34:30;;;;;;;0.60;0.50;;;21.60;53.20;;;;;;6290658;28;20945;-67
2021/10/20 04:37:31;;;;;;;0.70;0.60;;;21.60;53.20;;;;;;6262710;28;20506;-66
2021/10/20 04:40:32;;;;;;;0.60;0.60;;;21.60;53.20;;;;;;6260645;28;20026;-68
2021/10/20 04:43:32;;;;;;;0.57;0.57;;;21.60;53.20;;;;;;6290955;28;20028;-67
2021/10/20 04:46:33;;;;;;;0.63;0.60;;;21.60;53.20;;;;;;6279947;28;20043;-67
2021/10/20 04:49:33;;;;;;;0.55;0.55;;;21.60;53.20;;;;;;6241959;28;20558;-68
2021/10/20 04:52:35;;;;;;;0.50;0.50;;;21.60;53.20;;;;;;6275955;28;20028;-68
2021/10/20 04:55:36;;;;;;;0.60;0.60;;;21.60;53.20;;;;;;6289469;28;20037;-67
2021/10/20 04:58:36;;;;;;;0.77;0.70;;;21.60;53.20;;;;;;6272931;28;20024;-67
2021/10/20 05:01:37;;;;;;;0.95;0.65;;;21.60;53.20;;;;;;6281394;28;20017;-66
2021/10/20 05:04:37;;;;;;;1.00;0.52;;;21.60;53.20;;;;;;6284048;28;20420;-66
2021/10/20 05:07:53;;;;;;;0.50;0.50;;;21.60;53.20;;;;;;6293419;28;20378;-66
2021/10/20 05:10:56;;;;;;;0.60;0.60;;;21.60;53.20;;;;;;6293704;28;20045;-66
2021/10/20 05:13:56;;;;;;;0.40;0.40;;;21.60;53.30;;;;;;6289760;28;20453;-68
2021/10/20 05:16:57;;;;;;;0.63;0.45;;;21.60;53.20;;;;;;6288112;28;20052;-69
2021/10/20 05:19:59;;;;;;;0.60;0.60;;;21.60;53.20;;;;;;6279426;28;20136;-69
2021/10/20 05:22:59;;;;;;;0.50;0.40;;;21.60;53.30;;;;;;6268373;28;20082;-69
2021/10/20 05:26:00;;;;;;;0.50;0.50;;;21.60;53.20;;;;;;6272617;28;20036;-68
2021/10/20 05:29:01;;;;;;;0.95;0.50;;;21.60;53.20;;;;;;6293127;28;20064;-69
2021/10/20 05:32:02;;;;;;;0.85;0.77;;;21.60;53.30;;;;;;6291247;28;20564;-69
2021/10/20 05:35:04;;;;;;;0.82;0.70;;;21.60;53.20;;;;;;6292657;28;20028;-69
2021/10/20 05:38:04;;;;;;;0.70;0.70;;;21.60;53.20;;;;;;6292668;28;20104;-69
2021/10/20 05:41:07;;;;;;;0.50;0.50;;;21.60;53.20;;;;;;6286603;28;20449;-68
2021/10/20 05:44:07;;;;;;;0.50;0.50;;;21.60;53.20;;;;;;6277036;28;20017;-69
2021/10/20 05:47:09;;;;;;;1.20;0.90;;;21.60;53.20;;;;;;6261269;28;20032;-69
2021/10/20 05:50:10;;;;;;;0.60;0.60;;;21.60;53.30;;;;;;6243087;28;20028;-69
2021/10/20 05:53:10;;;;;;;0.88;0.50;;;21.60;53.30;;;;;;6287356;28;20024;-69
2021/10/20 05:56:11;;;;;;;0.70;0.60;;;21.60;53.30;;;;;;6290899;28;20024;-69
2021/10/20 05:59:12;;;;;;;0.50;0.40;;;21.60;53.30;;;;;;6268446;28;20056;-69
2021/10/20 06:02:14;;;;;;;0.65;0.63;;;21.60;53.30;;;;;;6281167;28;20089;-69
2021/10/20 06:05:14;;;;;;;0.70;0.63;;;21.60;53.20;;;;;;6277608;28;20029;-69
2021/10/20 06:08:15;;;;;;;1.58;0.60;;;21.60;53.30;;;;;;6281955;28;20442;-70
2021/10/20 06:11:17;;;;;;;0.75;0.60;;;21.60;53.30;;;;;;6270011;28;20091;-70
2021/10/20 06:14:19;;;;;;;0.85;0.60;;;21.60;53.30;;;;;;6270184;28;20033;-70
2021/10/20 06:17:20;;;;;;;1.23;0.70;;;21.60;53.30;;;;;;6280288;28;20050;-70
2021/10/20 06:20:20;;;;;;;1.23;0.80;;;21.60;53.30;;;;;;6295828;28;20020;-70
2021/10/20 06:23:21;;;;;;;0.70;0.68;;;21.60;53.30;;;;;;6291039;28;20028;-69
2021/10/20 06:26:22;;;;;;;1.20;0.70;;;21.60;53.30;;;;;;6280517;28;20100;-69
2021/10/20 06:29:25;;;;;;;0.80;0.65;;;21.60;53.30;;;;;;6261106;28;20050;-70
2021/10/20 06:32:25;;;;;;;0.70;0.70;;;21.60;53.30;;;;;;6262994;28;20021;-70
2021/10/20 06:35:26;;;;;;;0.80;0.68;;;21.60;53.30;;;;;;6270578;28;20457;-69
2021/10/20 06:38:27;;;;;;;0.65;0.60;;;21.60;53.30;;;;;;6271260;28;20086;-69
2021/10/20 06:41:28;;;;;;;2.20;0.90;;;21.60;53.30;;;;;;6277434;28;20078;-69
2021/10/20 06:44:28;;;;;;;1.55;0.70;;;21.60;53.30;;;;;;6299830;28;20039;-69
2021/10/20 06:47:29;;;;;;;0.88;0.65;;;21.60;53.30;;;;;;6286888;28;20017;-69
2021/10/20 06:50:31;;;;;;;1.00;0.90;;;21.60;53.30;;;;;;6275997;28;20032;-69
2021/10/20 06:53:32;;;;;;;1.25;0.93;;;21.70;53.40;;;;;;6252754;28;20390;-68
2021/10/20 06:56:32;;;;;;;0.80;0.65;;;21.60;53.30;;;;;;6262161;28;20021;-68
2021/10/20 06:59:33;;;;;;;0.90;0.80;;;21.60;53.30;;;;;;6275347;28;20021;-67
2021/10/20 07:02:35;;;;;;;0.82;0.70;;;21.60;53.30;;;;;;6287448;28;20017;-67
2021/10/20 07:05:35;;;;;;;1.17;0.80;;;21.60;53.30;;;;;;6299979;28;20035;-67
2021/10/20 07:08:37;;;;;;;0.88;0.80;;;21.60;53.30;;;;;;6274068;28;20029;-67
2021/10/20 07:11:37;;;;;;;1.50;0.88;;;21.70;53.40;;;;;;6274932;28;20076;-69
2021/10/20 07:14:38;;;;;;;0.80;0.70;;;21.60;53.30;;;;;;6274407;28;20036;-69
2021/10/20 07:17:39;;;;;;;0.77;0.60;;;21.60;53.30;;;;;;6275102;28;20386;-69
2021/10/20 07:20:39;;;;;;;0.50;0.50;;;21.60;53.30;;;;;;6273405;28;20233;-70
2021/10/20 07:23:40;;;;;;;0.70;0.65;;;21.60;53.30;;;;;;6274409;28;20025;-70
2021/10/20 07:26:43;;;;;;;0.93;0.80;;;21.60;53.30;;;;;;6274676;28;20483;-70
2021/10/20 07:29:46;;;;;;;1.40;0.80;;;21.60;53.30;;;;;;6274566;28;20068;-70
2021/10/20 07:32:47;;;;;;;0.80;0.80;;;21.60;53.30;;;;;;6293749;28;20107;-69
2021/10/20 07:35:48;;;;;;;0.75;0.70;;;21.60;53.30;;;;;;6295151;28;20398;-69
2021/10/20 07:38:49;;;;;;;0.93;0.70;;;21.60;53.30;;;;;;6273753;28;20060;-69
2021/10/20 07:41:50;;;;;;;0.93;0.80;;;21.60;53.30;;;;;;6292123;28;20074;-69
2021/10/20 07:44:51;;;;;;;0.80;0.70;;;21.60;53.30;;;;;;6298273;28;20020;-70
2021/10/20 07:47:52;;;;;;;0.90;0.80;;;21.60;53.30;;;;;;6296174;28;20025;-69
2021/10/20 07:50:52;;;;;;;1.08;0.90;;;21.60;53.30;;;;;;6295540;28;20234;-70
2021/10/20 07:53:53;;;;;;;0.93;0.75;;;21.60;53.30;;;;;;6273822;28;20025;-69
2021/10/20 07:56:54;;;;;;;0.68;0.68;;;21.60;53.30;;;;;;6275374;28;20146;-68
2021/10/20 07:59:55;;;;;;;1.00;0.60;;;21.60;53.30;;;;;;6272394;28;20506;-68
2021/10/20 08:02:56;;;;;;;0.80;0.75;;;21.60;53.30;;;;;;6291368;28;20484;-68
2021/10/20 08:05:56;;;;;;;0.93;0.80;;;21.60;53.30;;;;;;6296869;28;20551;-69
2021/10/20 08:08:57;;;;;;;1.05;0.60;;;21.60;53.30;;;;;;6295369;28;20056;-69
2021/10/20 08:11:57;;;;;;;0.90;0.73;;;21.60;53.30;;;;;;6296674;28;20087;-68
2021/10/20 08:15:00;;;;;;;0.77;0.70;;;21.60;53.30;;;;;;6296778;28;20036;-67
2021/10/20 08:18:05;;;;;;;1.23;0.90;;;21.60;53.30;;;;;;6280964;28;20047;-66
2021/10/20 08:21:06;;;;;;;1.15;0.90;;;21.60;53.30;;;;;;6274411;28;20494;-68
2021/10/20 08:24:07;;;;;;;0.80;0.80;;;21.60;53.30;;;;;;6296780;28;20020;-68
2021/10/20 08:27:07;;;;;;;0.70;0.70;;;21.60;53.30;;;;;;6289214;28;20095;-68
2021/10/20 08:30:17;;;;;;;1.00;0.90;;;21.60;53.30;;;;;;6296311;28;20020;-68
2021/10/20 08:33:19;;;;;;;0.80;0.68;;;21.70;53.40;;;;;;6295042;28;20044;-68
2021/10/20 08:36:20;;;;;;;0.88;0.80;;;21.60;53.40;;;;;;6293136;28;20036;-69
2021/10/20 08:39:21;;;;;;;0.70;0.60;;;21.60;53.30;;;;;;6271494;28;20347;-69
2021/10/20 08:42:22;;;;;;;0.70;0.70;;;21.60;53.30;;;;;;6256530;28;20537;-68
2021/10/20 08:45:23;;;;;;;1.00;0.90;;;21.60;53.30;;;;;;6265797;28;20028;-68
2021/10/20 08:48:24;;;;;;;1.67;0.80;;;21.60;53.30;;;;;;6273611;28;20024;-68
2021/10/20 08:51:26;;;;;;;1.40;0.95;;;21.60;53.30;;;;;;6292724;28;20493;-68
2021/10/20 08:54:28;;;;;;;3.22;1.10;;;21.70;53.40;;;;;;6294311;28;20065;-68
2021/10/20 08:57:28;;;;;;;1.77;0.80;;;21.60;53.30;;;;;;6290296;28;20035;-68
2021/10/20 09:00:29;;;;;;;1.13;0.98;;;21.70;53.40;;;;;;6271111;28;20021;-66
2021/10/20 09:03:29;;;;;;;1.25;0.82;;;21.60;53.40;;;;;;6272231;28;20082;-65
2021/10/20 09:06:30;;;;;;;1.30;1.08;;;21.60;53.30;;;;;;6273171;28;20059;-68
2021/10/20 09:09:33;;;;;;;0.75;0.65;;;21.60;53.30;;;;;;6285521;28;20044;-68
2021/10/20 09:12:37;;;;;;;0.90;0.70;;;21.70;53.40;;;;;;6276174;28;20089;-68
2021/10/20 09:15:38;;;;;;;1.25;0.95;;;21.70;53.40;;;;;;6293971;28;20021;-67
2021/10/20 09:18:39;;;;;;;1.45;0.82;;;21.70;53.40;;;;;;6291185;28;20093;-68
2021/10/20 09:21:57;;;;;;;1.30;1.05;;;21.60;53.30;;;;;;6289628;28;20363;-67
2021/10/20 09:25:02;;;;;;;1.90;0.90;;;21.70;53.40;;;;;;6269253;28;20024;-68
2021/10/20 09:28:06;;;;;;;4.00;0.80;;;21.70;53.40;;;;;;6274479;28;20661;-69
2021/10/20 09:31:08;;;;;;;1.30;0.77;;;21.70;53.40;;;;;;6283858;28;20036;-68
2021/10/20 09:34:08;;;;;;;2.90;1.00;;;21.70;53.40;;;;;;6292913;28;20527;-69
2021/10/20 09:37:09;;;;;;;1.05;0.77;;;21.70;53.40;;;;;;6259180;28;20108;-69
2021/10/20 09:40:12;;;;;;;1.48;1.20;;;21.70;53.40;;;;;;6270577;28;20031;-66
2021/10/20 09:43:17;;;;;;;1.65;0.82;;;21.70;53.40;;;;;;6281660;28;20024;-66
2021/10/20 09:46:31;;;;;;;3.00;0.95;;;21.70;53.40;;;;;;6270662;28;20049;-66
2021/10/20 09:49:33;;;;;;;1.00;0.90;;;21.70;53.40;;;;;;6242797;28;20475;-66
2021/10/20 09:52:52;;;;;;;1.65;0.98;;;21.70;53.40;;;;;;6271343;28;20028;-66
2021/10/20 09:55:53;;;;;;;1.45;1.15;;;21.70;53.40;;;;;;6282662;28;20075;-68
2021/10/20 09:58:54;;;;;;;1.33;0.95;;;21.70;53.40;;;;;;6268314;28;20033;-68
2021/10/20 10:01:55;;;;;;;0.82;0.77;;;21.70;53.40;;;;;;6276146;28;20043;-68
2021/10/20 10:04:56;;;;;;;1.10;0.90;;;21.70;53.40;;;;;;6256660;28;20048;-69
2021/10/20 10:07:57;;;;;;;0.82;0.73;;;21.70;53.40;;;;;;6280824;28;20036;-68
2021/10/20 10:10:59;;;;;;;1.50;1.10;;;21.70;53.50;;;;;;6272136;28;20061;-68
2021/10/20 10:14:02;;;;;;;4.20;0.95;;;21.70;53.40;;;;;;6268932;28;20032;-68
2021/10/20 10:17:06;;;;;;;0.95;0.85;;;21.70;53.40;;;;;;6278681;28;20023;-68
2021/10/20 10:20:12;;;;;;;2.42;0.80;;;21.70;53.40;;;;;;6288426;28;20401;-65
2021/10/20 10:23:24;;;;;;;1.77;1.33;;;21.70;53.30;;;;;;6289326;28;20804;-66
2021/10/20 10:26:25;;;;;;;3.40;1.10;;;21.70;53.40;;;;;;6290704;28;20099;-68
2021/10/20 10:29:29;;;;;;;4.25;1.27;;;21.80;53.50;;;;;;6288496;28;20064;-68
2021/10/20 10:32:32;;;;;;;1.17;0.90;;;21.80;53.60;;;;;;6280277;28;20035;-66
2021/10/20 10:35:35;;;;;;;1.00;0.90;;;21.70;53.60;;;;;;6278466;28;20027;-66
2021/10/20 10:38:58;;;;;;;1.33;0.98;;;21.70;53.60;;;;;;6276019;28;20029;-67
2021/10/20 10:42:04;;;;;;;1.70;1.10;;;21.70;53.70;;;;;;6285427;28;20493;-69
2021/10/20 10:45:14;;;;;;;1.35;1.00;;;21.70;53.60;;;;;;6299413;28;20409;-69
2021/10/20 10:48:15;;;;;;;2.22;1.17;;;21.70;53.60;;;;;;6280812;28;20024;-68
2021/10/20 10:51:18;;;;;;;2.50;0.93;;;21.70;53.70;;;;;;6296711;28;20103;-72
2021/10/20 10:54:33;;;;;;;2.88;0.98;;;21.70;53.60;;;;;;6300055;28;20021;-69
2021/10/20 10:57:36;;;;;;;5.22;1.33;;;21.70;53.60;;;;;;6298951;28;20033;-68
2021/10/20 11:00:48;;;;;;;2.53;1.40;;;21.80;53.70;;;;;;6296871;28;20035;-67
2021/10/20 11:04:32;;;;;;;2.42;1.17;;;21.70;53.50;;;;;;6298887;28;20020;-69
2021/10/20 11:07:34;;;;;;;3.10;1.42;;;21.70;53.50;;;;;;6274283;28;20021;-69
2021/10/20 11:10:37;;;;;;;3.95;1.30;;;21.70;53.60;;;;;;6277834;28;20053;-69
2021/10/20 11:13:38;;;;;;;10.23;1.40;;;21.70;53.60;;;;;;6286749;28;20182;-68
2021/10/20 11:16:39;;;;;;;2.22;1.23;;;21.70;53.70;;;;;;6295147;28;20033;-69
2021/10/20 11:19:40;;;;;;;8.43;1.25;;;21.70;53.80;;;;;;6298387;28;20078;-69
2021/10/20 11:22:44;;;;;;;2.17;1.20;;;21.70;53.70;;;;;;6296685;28;20043;-69
2021/10/20 11:25:47;;;;;;;4.43;1.40;;;21.70;53.80;;;;;;6297352;28;20283;-69
2021/10/20 11:28:47;;;;;;;2.22;1.27;;;21.70;53.80;;;;;;6278206;28;20032;-69
2021/10/20 11:31:54;;;;;;;2.05;1.23;;;21.70;53.80;;;;;;6278810;28;20505;-69
2021/10/20 11:34:55;;;;;;;2.60;1.27;;;21.70;53.80;;;;;;6288038;28;20037;-69
2021/10/20 11:38:00;;;;;;;1.30;1.10;;;21.70;53.80;;;;;;6289147;28;20048;-69
2021/10/20 11:41:01;;;;;;;3.65;1.63;;;21.70;53.80;;;;;;6292717;28;20024;-67
2021/10/20 11:44:02;;;;;;;3.08;1.45;;;21.70;53.80;;;;;;6294213;28;20031;-67
2021/10/20 11:47:05;;;;;;;3.03;1.45;;;21.70;53.80;;;;;;6284647;28;20115;-67
2021/10/20 11:50:10;;;;;;;3.08;1.40;;;21.70;53.80;;;;;;6275555;28;20493;-67
2021/10/20 11:53:11;;;;;;;1.45;1.20;;;21.70;53.80;;;;;;6266705;28;20029;-67
2021/10/20 11:56:13;;;;;;;2.15;1.23;;;21.70;53.80;;;;;;6270126;28;20494;-67
2021/10/20 11:59:19;;;;;;;1.63;1.20;;;21.70;53.80;;;;;;6269223;28;20024;-67
2021/10/20 12:02:20;;;;;;;1.70;1.25;;;21.70;53.80;;;;;;6274492;28;20333;-67
2021/10/20 12:05:21;;;;;;;1.67;1.30;;;21.70;53.80;;;;;;6251003;28;20068;-69
2021/10/20 12:08:21;;;;;;;4.05;1.25;;;21.70;53.90;;;;;;6270037;28;20090;-67
2021/10/20 12:11:22;;;;;;;4.70;1.63;;;21.70;53.90;;;;;;6294974;28;20489;-67
2021/10/20 12:14:31;;;;;;;2.05;1.17;;;21.70;53.80;;;;;;6272789;28;20036;-67
2021/10/20 12:17:32;;;;;;;1.63;1.30;;;21.70;53.90;;;;;;6265807;28;20024;-67
2021/10/20 12:20:33;;;;;;;1.35;1.20;;;21.70;53.80;;;;;;6294530;28;20028;-67
2021/10/20 12:23:33;;;;;;;1.45;1.15;;;21.70;53.90;;;;;;6294555;28;20031;-67
2021/10/20 12:26:36;;;;;;;1.35;1.20;;;21.70;53.80;;;;;;6278184;28;20030;-67
2021/10/20 12:29:43;;;;;;;1.67;1.20;;;21.70;53.90;;;;;;6268585;28;20389;-67
2021/10/20 12:32:44;;;;;;;2.10;1.40;;;21.70;53.90;;;;;;6259616;28;20543;-67
2021/10/20 12:35:49;;;;;;;1.35;1.20;;;21.70;53.90;;;;;;6267800;28;20033;-67
2021/10/20 12:38:50;;;;;;;1.63;1.38;;;21.70;53.90;;;;;;6288378;28;20028;-67
2021/10/20 12:41:51;;;;;;;5.72;1.30;;;21.70;53.90;;;;;;6266380;28;20021;-67
2021/10/20 12:44:59;;;;;;;2.08;1.33;;;21.70;53.90;;;;;;6281610;28;20025;-68
2021/10/20 12:48:06;;;;;;;2.45;1.50;;;21.70;53.80;;;;;;6266587;28;20083;-65
2021/10/20 12:51:15;;;;;;;3.05;1.50;;;21.70;53.90;;;;;;6271921;28;20052;-66
2021/10/20 12:54:15;;;;;;;2.05;1.42;;;21.70;53.90;;;;;;6294540;28;20077;-69
2021/10/20 12:57:16;;;;;;;1.63;1.45;;;21.70;54.50;;;;;;6284607;28;20501;-67
2021/10/20 13:00:23;;;;;;;2.38;1.70;;;21.70;53.90;;;;;;6293024;28;20501;-67
2021/10/20 13:03:23;;;;;;;4.18;1.70;;;21.70;54.50;;;;;;6291027;28;20497;-67
2021/10/20 13:06:24;;;;;;;4.80;1.73;;;21.70;53.70;;;;;;6270271;28;20052;-67
2021/10/20 13:09:27;;;;;;;2.40;1.42;;;21.70;53.80;;;;;;6269518;28;20081;-67
2021/10/20 13:12:28;;;;;;;2.22;1.80;;;21.70;53.80;;;;;;6271468;28;20466;-67
2021/10/20 13:15:29;;;;;;;4.00;2.03;;;21.70;53.70;;;;;;6268413;28;20025;-67
2021/10/20 13:18:29;;;;;;;7.03;3.42;;;21.70;53.70;;;;;;6268860;28;20028;-69
2021/10/20 13:21:30;;;;;;;9.63;3.95;;;21.70;53.70;;;;;;6270702;28;20430;-67
2021/10/20 13:24:31;;;;;;;14.63;5.63;;;21.70;53.80;;;;;;6290379;28;20074;-67
2021/10/20 13:27:33;;;;;;;17.55;7.43;;;21.70;53.70;;;;;;6278420;28;20098;-68
2021/10/20 13:30:35;;;;;;;19.05;7.55;;;21.70;53.80;;;;;;6289027;28;20051;-66
2021/10/20 13:33:36;;;;;;;22.60;8.90;;;21.70;53.70;;;;;;6268739;28;20547;-65
2021/10/20 13:36:36;;;;;;;20.95;8.57;;;21.70;53.80;;;;;;6265672;28;20029;-67
2021/10/20 13:39:37;;;;;;;19.42;8.68;;;21.70;53.70;;;;;;6268014;28;20021;-67
2021/10/20 13:42:38;;;;;;;22.20;9.15;;;21.70;53.70;;;;;;6274492;28;20032;-68
2021/10/20 13:45:38;;;;;;;16.05;7.30;;;21.70;53.70;;;;;;6276160;28;20029;-69
2021/10/20 13:48:39;;;;;;;20.33;8.02;;;21.70;53.80;;;;;;6268201;28;20079;-66
2021/10/20 13:51:39;;;;;;;21.63;7.85;;;21.70;53.70;;;;;;6271692;28;20701;-66
2021/10/20 13:54:40;;;;;;;15.20;7.07;;;21.70;53.70;;;;;;6282392;28;20389;-66
2021/10/20 13:57:40;;;;;;;24.48;7.45;;;21.70;53.70;;;;;;6285735;28;20492;-66
2021/10/20 14:00:42;;;;;;;13.13;6.65;;;21.70;53.70;;;;;;6292498;28;20556;-66
2021/10/20 14:03:42;;;;;;;18.30;6.80;;;21.70;53.80;;;;;;6269450;28;20013;-66
2021/10/20 14:06:46;;;;;;;15.65;7.10;;;21.70;53.80;;;;;;6278200;28;20035;-66
2021/10/20 14:09:47;;;;;;;14.32;6.43;;;21.70;53.70;;;;;;6273970;28;20037;-66
2021/10/20 14:12:47;;;;;;;13.60;6.13;;;21.70;53.80;;;;;;6270520;28;20119;-66
2021/10/20 14:15:49;;;;;;;14.00;6.35;;;21.70;53.80;;;;;;6267216;28;20036;-66
2021/10/20 14:18:50;;;;;;;13.85;6.13;;;21.70;53.80;;;;;;6273323;28;20643;-68
2021/10/20 14:21:51;;;;;;;12.10;5.95;;;21.70;53.80;;;;;;6270607;28;20021;-66
2021/10/20 14:24:51;;;;;;;12.55;6.13;;;21.70;53.80;;;;;;6269537;28;20463;-66
2021/10/20 14:27:52;;;;;;;15.00;6.00;;;21.70;53.80;;;;;;6286713;28;20557;-66
2021/10/20 14:30:53;;;;;;;14.15;6.47;;;21.70;53.80;;;;;;6273726;28;20036;-65
2021/10/20 14:33:57;;;;;;;11.75;5.32;;;21.70;53.80;;;;;;6285454;28;20039;-66
2021/10/20 14:36:57;;;;;;;13.75;6.05;;;21.70;53.90;;;;;;6268135;28;20025;-66
2021/10/20 14:39:58;;;;;;;11.40;5.72;;;21.70;53.90;;;;;;6292373;28;20432;-66
2021/10/20 14:43:01;;;;;;;10.18;5.43;;;21.70;53.90;;;;;;6273353;28;20067;-68
2021/10/20 14:46:02;;;;;;;9.27;4.45;;;21.70;53.90;;;;;;6269089;28;20031;-67
2021/10/20 14:49:05;;;;;;;10.82;5.18;;;21.70;53.90;;;;;;6267106;28;20029;-67
2021/10/20 14:52:06;;;;;;;8.48;4.63;;;21.70;53.90;;;;;;6280411;28;20100;-67
2021/10/20 14:55:07;;;;;;;15.43;5.78;;;21.70;53.90;;;;;;6286563;28;20051;-67
2021/10/20 14:58:09;;;;;;;16.05;5.25;;;21.70;53.90;;;;;;6288959;28;20057;-69
2021/10/20 15:01:10;;;;;;;9.15;4.75;;;21.70;53.90;;;;;;6272563;28;20017;-67
2021/10/20 15:04:12;;;;;;;10.27;5.50;;;21.70;54.00;;;;;;6270670;28;20028;-67
2021/10/20 15:07:13;;;;;;;14.43;5.07;;;21.70;54.10;;;;;;6271923;28;20024;-67
2021/10/20 15:10:15;;;;;;;9.85;4.80;;;21.70;54.10;;;;;;6289707;28;20216;-67
2021/10/20 15:13:16;;;;;;;14.93;6.07;;;21.70;54.20;;;;;;6275906;28;20018;-67
2021/10/20 15:16:18;;;;;;;10.00;5.63;;;21.70;54.20;;;;;;6282218;28;20444;-66
2021/10/20 15:19:32;;;;;;;8.27;5.32;;;21.70;54.00;;;;;;6293200;28;20023;-67
2021/10/20 15:22:33;;;;;;;10.77;6.05;;;21.70;54.80;;;;;;6291745;28;20486;-69
2021/10/20 15:25:34;;;;;;;12.38;5.78;;;21.70;54.70;;;;;;6273806;28;20035;-69
2021/10/20 15:28:35;;;;;;;10.05;5.22;;;21.70;54.90;;;;;;6288444;28;20107;-69
2021/10/20 15:31:36;;;;;;;12.00;6.18;;;21.70;54.90;;;;;;6287277;28;20090;-69
2021/10/20 15:34:41;;;;;;;10.88;6.07;;;21.70;54.50;;;;;;6271849;28;20029;-69
2021/10/20 15:37:43;;;;;;;;;;;21.70;55.10;;;;;;6289081;28;20074;-69
2021/10/20 15:40:44;;;;;;;10.35;4.63;;;21.70;55.10;;;;;;6290516;28;19990;-69
2021/10/20 15:43:46;;;;;;;11.52;5.47;;;21.70;54.70;;;;;;6272342;28;20025;-67
2021/10/20 15:46:47;;;;;;;9.77;4.25;;;21.70;55.00;;;;;;6269856;28;20025;-67